sensor_id;sensor_type;location;lat;lon;timestamp;P1;durP1;ratioP1;P2;durP2;ratioP2
37201;SDS011;37799;52.390;6.136;2023-03-13T00:00:54;5.18;;;0.82;;
37201;SDS011;37799;52.390;6.136;2023-03-13T00:03:21;5.05;;;0.90;;
37201;SDS011;37799;52.390;6.136;2023-03-13T00:05:46;4.65;;;0.30;;
37201;SDS011;37799;52.390;6.136;2023-03-13T00:08:12;6.53;;;0.95;;
37201;SDS011;37799;52.390;6.136;2023-03-13T00:10:37;4.75;;;0.50;;
37201;SDS011;37799;52.390;6.136;2023-03-13T00:13:03;4.70;;;0.45;;
37201;SDS011;37799;52.390;6.136;2023-03-13T00:15:29;6.20;;;0.98;;
37201;SDS011;37799;52.390;6.136;2023-03-13T00:17:54;12.45;;;0.93;;
37201;SDS011;37799;52.390;6.136;2023-03-13T00:20:19;5.65;;;0.88;;
37201;SDS011;37799;52.390;6.136;2023-03-13T00:22:45;4.82;;;0.88;;
37201;SDS011;37799;52.390;6.136;2023-03-13T00:25:10;6.32;;;1.00;;
37201;SDS011;37799;52.390;6.136;2023-03-13T00:27:35;4.55;;;0.50;;
37201;SDS011;37799;52.390;6.136;2023-03-13T00:30:01;4.68;;;1.00;;
37201;SDS011;37799;52.390;6.136;2023-03-13T00:32:26;8.50;;;1.85;;
37201;SDS011;37799;52.390;6.136;2023-03-13T00:34:51;7.25;;;0.73;;
37201;SDS011;37799;52.390;6.136;2023-03-13T00:37:17;7.13;;;1.67;;
37201;SDS011;37799;52.390;6.136;2023-03-13T00:39:42;4.25;;;0.95;;
37201;SDS011;37799;52.390;6.136;2023-03-13T00:42:08;6.38;;;0.85;;
37201;SDS011;37799;52.390;6.136;2023-03-13T00:44:34;9.23;;;1.10;;
37201;SDS011;37799;52.390;6.136;2023-03-13T00:46:59;3.63;;;1.02;;
37201;SDS011;37799;52.390;6.136;2023-03-13T00:49:24;7.60;;;1.10;;
37201;SDS011;37799;52.390;6.136;2023-03-13T00:51:50;2.33;;;0.35;;
37201;SDS011;37799;52.390;6.136;2023-03-13T00:54:15;4.32;;;0.75;;
37201;SDS011;37799;52.390;6.136;2023-03-13T00:56:40;7.95;;;0.63;;
37201;SDS011;37799;52.390;6.136;2023-03-13T00:59:05;7.93;;;0.82;;
37201;SDS011;37799;52.390;6.136;2023-03-13T01:01:32;3.63;;;0.65;;
37201;SDS011;37799;52.390;6.136;2023-03-13T01:04:00;5.72;;;0.93;;
37201;SDS011;37799;52.390;6.136;2023-03-13T01:06:28;8.02;;;1.48;;
37201;SDS011;37799;52.390;6.136;2023-03-13T01:08:55;6.28;;;1.05;;
37201;SDS011;37799;52.390;6.136;2023-03-13T01:11:25;3.75;;;0.70;;
37201;SDS011;37799;52.390;6.136;2023-03-13T01:13:56;6.90;;;1.02;;
37201;SDS011;37799;52.390;6.136;2023-03-13T01:16:24;4.10;;;0.43;;
37201;SDS011;37799;52.390;6.136;2023-03-13T01:18:51;3.00;;;0.90;;
37201;SDS011;37799;52.390;6.136;2023-03-13T01:21:20;8.00;;;0.93;;
37201;SDS011;37799;52.390;6.136;2023-03-13T01:23:47;5.35;;;0.85;;
37201;SDS011;37799;52.390;6.136;2023-03-13T01:26:14;8.45;;;0.82;;
37201;SDS011;37799;52.390;6.136;2023-03-13T01:28:40;15.27;;;1.48;;
37201;SDS011;37799;52.390;6.136;2023-03-13T01:31:12;7.20;;;0.82;;
37201;SDS011;37799;52.390;6.136;2023-03-13T01:33:40;4.70;;;0.73;;
37201;SDS011;37799;52.390;6.136;2023-03-13T01:36:06;6.40;;;0.93;;
37201;SDS011;37799;52.390;6.136;2023-03-13T01:38:32;6.53;;;0.70;;
37201;SDS011;37799;52.390;6.136;2023-03-13T01:40:58;7.72;;;0.65;;
37201;SDS011;37799;52.390;6.136;2023-03-13T01:43:24;4.15;;;0.52;;
37201;SDS011;37799;52.390;6.136;2023-03-13T01:46:02;5.38;;;1.67;;
37201;SDS011;37799;52.390;6.136;2023-03-13T01:51:08;5.95;;;0.52;;
37201;SDS011;37799;52.390;6.136;2023-03-13T01:53:37;7.43;;;1.20;;
37201;SDS011;37799;52.390;6.136;2023-03-13T01:56:07;5.07;;;0.93;;
37201;SDS011;37799;52.390;6.136;2023-03-13T01:58:37;3.45;;;0.68;;
37201;SDS011;37799;52.390;6.136;2023-03-13T02:01:02;5.13;;;0.75;;
37201;SDS011;37799;52.390;6.136;2023-03-13T02:03:30;4.20;;;1.00;;
37201;SDS011;37799;52.390;6.136;2023-03-13T02:05:56;4.18;;;0.55;;
37201;SDS011;37799;52.390;6.136;2023-03-13T02:08:24;4.18;;;0.60;;
37201;SDS011;37799;52.390;6.136;2023-03-13T02:11:15;4.50;;;0.50;;
37201;SDS011;37799;52.390;6.136;2023-03-13T02:13:48;6.15;;;0.93;;
37201;SDS011;37799;52.390;6.136;2023-03-13T02:16:14;4.13;;;0.70;;
37201;SDS011;37799;52.390;6.136;2023-03-13T02:18:40;7.57;;;0.40;;
37201;SDS011;37799;52.390;6.136;2023-03-13T02:21:52;3.00;;;0.50;;
37201;SDS011;37799;52.390;6.136;2023-03-13T02:24:19;5.53;;;0.55;;
37201;SDS011;37799;52.390;6.136;2023-03-13T02:26:51;6.88;;;0.60;;
37201;SDS011;37799;52.390;6.136;2023-03-13T02:29:17;2.97;;;0.77;;
37201;SDS011;37799;52.390;6.136;2023-03-13T02:31:46;4.25;;;0.70;;
37201;SDS011;37799;52.390;6.136;2023-03-13T02:34:12;5.97;;;1.10;;
37201;SDS011;37799;52.390;6.136;2023-03-13T02:36:42;4.50;;;0.73;;
37201;SDS011;37799;52.390;6.136;2023-03-13T02:39:10;4.18;;;0.77;;
37201;SDS011;37799;52.390;6.136;2023-03-13T02:41:40;5.95;;;0.88;;
37201;SDS011;37799;52.390;6.136;2023-03-13T02:44:06;3.75;;;0.40;;
37201;SDS011;37799;52.390;6.136;2023-03-13T02:46:42;3.22;;;0.70;;
37201;SDS011;37799;52.390;6.136;2023-03-13T02:49:27;2.45;;;0.45;;
37201;SDS011;37799;52.390;6.136;2023-03-13T02:51:55;3.85;;;0.50;;
37201;SDS011;37799;52.390;6.136;2023-03-13T02:54:25;3.58;;;0.70;;
37201;SDS011;37799;52.390;6.136;2023-03-13T02:56:56;2.80;;;0.40;;
37201;SDS011;37799;52.390;6.136;2023-03-13T02:59:26;2.45;;;0.60;;
37201;SDS011;37799;52.390;6.136;2023-03-13T03:01:51;1.63;;;0.40;;
37201;SDS011;37799;52.390;6.136;2023-03-13T03:04:19;2.88;;;0.50;;
37201;SDS011;37799;52.390;6.136;2023-03-13T03:06:48;1.55;;;0.40;;
37201;SDS011;37799;52.390;6.136;2023-03-13T03:09:14;1.92;;;0.45;;
37201;SDS011;37799;52.390;6.136;2023-03-13T03:11:40;2.78;;;0.38;;
37201;SDS011;37799;52.390;6.136;2023-03-13T03:14:06;5.50;;;0.57;;
37201;SDS011;37799;52.390;6.136;2023-03-13T03:16:32;3.65;;;0.50;;
37201;SDS011;37799;52.390;6.136;2023-03-13T03:18:57;4.68;;;0.70;;
37201;SDS011;37799;52.390;6.136;2023-03-13T03:21:23;2.78;;;0.40;;
37201;SDS011;37799;52.390;6.136;2023-03-13T03:23:48;4.07;;;0.52;;
37201;SDS011;37799;52.390;6.136;2023-03-13T03:26:15;3.33;;;0.85;;
37201;SDS011;37799;52.390;6.136;2023-03-13T03:28:41;3.10;;;0.68;;
37201;SDS011;37799;52.390;6.136;2023-03-13T03:31:07;2.35;;;0.60;;
37201;SDS011;37799;52.390;6.136;2023-03-13T03:33:36;3.13;;;0.70;;
37201;SDS011;37799;52.390;6.136;2023-03-13T03:36:03;2.88;;;0.73;;
37201;SDS011;37799;52.390;6.136;2023-03-13T03:38:31;4.88;;;0.65;;
37201;SDS011;37799;52.390;6.136;2023-03-13T03:40:57;3.35;;;0.52;;
37201;SDS011;37799;52.390;6.136;2023-03-13T03:43:22;4.68;;;0.80;;
37201;SDS011;37799;52.390;6.136;2023-03-13T03:45:48;4.00;;;0.85;;
37201;SDS011;37799;52.390;6.136;2023-03-13T03:48:13;3.28;;;0.60;;
37201;SDS011;37799;52.390;6.136;2023-03-13T03:50:39;4.90;;;0.82;;
37201;SDS011;37799;52.390;6.136;2023-03-13T03:53:04;3.95;;;0.90;;
37201;SDS011;37799;52.390;6.136;2023-03-13T03:55:29;4.18;;;1.00;;
37201;SDS011;37799;52.390;6.136;2023-03-13T03:57:55;3.22;;;0.68;;
37201;SDS011;37799;52.390;6.136;2023-03-13T04:00:20;4.43;;;1.05;;
37201;SDS011;37799;52.390;6.136;2023-03-13T04:02:46;4.35;;;0.80;;
37201;SDS011;37799;52.390;6.136;2023-03-13T04:05:11;3.45;;;0.85;;
37201;SDS011;37799;52.390;6.136;2023-03-13T04:07:36;4.38;;;0.95;;
37201;SDS011;37799;52.390;6.136;2023-03-13T04:10:02;3.67;;;0.77;;
37201;SDS011;37799;52.390;6.136;2023-03-13T04:12:28;4.43;;;0.73;;
37201;SDS011;37799;52.390;6.136;2023-03-13T04:14:53;5.53;;;1.08;;
37201;SDS011;37799;52.390;6.136;2023-03-13T04:17:19;3.50;;;0.90;;
37201;SDS011;37799;52.390;6.136;2023-03-13T04:19:44;5.07;;;1.20;;
37201;SDS011;37799;52.390;6.136;2023-03-13T04:22:09;5.65;;;1.23;;
37201;SDS011;37799;52.390;6.136;2023-03-13T04:24:35;4.28;;;0.90;;
37201;SDS011;37799;52.390;6.136;2023-03-13T04:27:00;6.45;;;1.42;;
37201;SDS011;37799;52.390;6.136;2023-03-13T04:29:27;4.38;;;0.93;;
37201;SDS011;37799;52.390;6.136;2023-03-13T04:31:53;5.57;;;1.45;;
37201;SDS011;37799;52.390;6.136;2023-03-13T04:34:18;4.80;;;1.30;;
37201;SDS011;37799;52.390;6.136;2023-03-13T04:36:44;4.65;;;1.35;;
37201;SDS011;37799;52.390;6.136;2023-03-13T04:39:09;7.30;;;1.20;;
37201;SDS011;37799;52.390;6.136;2023-03-13T04:41:34;6.20;;;1.63;;
37201;SDS011;37799;52.390;6.136;2023-03-13T04:43:59;5.80;;;1.50;;
37201;SDS011;37799;52.390;6.136;2023-03-13T04:46:25;4.45;;;1.10;;
37201;SDS011;37799;52.390;6.136;2023-03-13T04:48:50;4.78;;;1.27;;
37201;SDS011;37799;52.390;6.136;2023-03-13T04:51:15;5.10;;;1.65;;
37201;SDS011;37799;52.390;6.136;2023-03-13T04:53:41;5.05;;;1.13;;
37201;SDS011;37799;52.390;6.136;2023-03-13T04:56:06;5.50;;;1.33;;
37201;SDS011;37799;52.390;6.136;2023-03-13T04:58:31;4.80;;;1.27;;
37201;SDS011;37799;52.390;6.136;2023-03-13T05:00:56;5.57;;;1.20;;
37201;SDS011;37799;52.390;6.136;2023-03-13T05:03:22;6.22;;;1.52;;
37201;SDS011;37799;52.390;6.136;2023-03-13T05:05:48;4.45;;;0.90;;
37201;SDS011;37799;52.390;6.136;2023-03-13T05:08:13;5.65;;;1.67;;
37201;SDS011;37799;52.390;6.136;2023-03-13T05:10:40;7.25;;;1.58;;
37201;SDS011;37799;52.390;6.136;2023-03-13T05:13:06;6.72;;;1.58;;
37201;SDS011;37799;52.390;6.136;2023-03-13T05:15:32;5.93;;;1.33;;
37201;SDS011;37799;52.390;6.136;2023-03-13T05:17:57;7.57;;;2.05;;
37201;SDS011;37799;52.390;6.136;2023-03-13T05:20:22;6.88;;;1.77;;
37201;SDS011;37799;52.390;6.136;2023-03-13T05:22:48;3.80;;;1.17;;
37201;SDS011;37799;52.390;6.136;2023-03-13T05:25:13;4.72;;;1.60;;
37201;SDS011;37799;52.390;6.136;2023-03-13T05:27:39;6.32;;;1.83;;
37201;SDS011;37799;52.390;6.136;2023-03-13T05:30:05;5.43;;;1.58;;
37201;SDS011;37799;52.390;6.136;2023-03-13T05:32:31;5.57;;;1.50;;
37201;SDS011;37799;52.390;6.136;2023-03-13T05:34:56;5.32;;;1.70;;
37201;SDS011;37799;52.390;6.136;2023-03-13T05:37:21;5.93;;;1.52;;
37201;SDS011;37799;52.390;6.136;2023-03-13T05:39:46;9.38;;;2.03;;
37201;SDS011;37799;52.390;6.136;2023-03-13T05:42:12;7.28;;;1.90;;
37201;SDS011;37799;52.390;6.136;2023-03-13T05:44:37;5.75;;;1.60;;
37201;SDS011;37799;52.390;6.136;2023-03-13T05:47:02;5.85;;;1.80;;
37201;SDS011;37799;52.390;6.136;2023-03-13T05:49:28;6.78;;;1.42;;
37201;SDS011;37799;52.390;6.136;2023-03-13T05:51:54;5.57;;;1.70;;
37201;SDS011;37799;52.390;6.136;2023-03-13T05:54:19;5.88;;;1.33;;
37201;SDS011;37799;52.390;6.136;2023-03-13T05:56:44;8.35;;;1.10;;
37201;SDS011;37799;52.390;6.136;2023-03-13T05:59:12;5.03;;;1.15;;
37201;SDS011;37799;52.390;6.136;2023-03-13T06:01:38;4.97;;;1.42;;
37201;SDS011;37799;52.390;6.136;2023-03-13T06:04:03;6.10;;;1.30;;
37201;SDS011;37799;52.390;6.136;2023-03-13T06:06:28;4.63;;;1.08;;
37201;SDS011;37799;52.390;6.136;2023-03-13T06:08:53;3.63;;;1.13;;
37201;SDS011;37799;52.390;6.136;2023-03-13T06:11:19;5.60;;;1.27;;
37201;SDS011;37799;52.390;6.136;2023-03-13T06:13:44;4.43;;;1.40;;
37201;SDS011;37799;52.390;6.136;2023-03-13T06:16:09;4.57;;;0.75;;
37201;SDS011;37799;52.390;6.136;2023-03-13T06:18:35;5.45;;;1.05;;
37201;SDS011;37799;52.390;6.136;2023-03-13T06:21:00;4.18;;;1.00;;
37201;SDS011;37799;52.390;6.136;2023-03-13T06:23:26;2.47;;;0.50;;
37201;SDS011;37799;52.390;6.136;2023-03-13T06:25:51;2.05;;;0.55;;
37201;SDS011;37799;52.390;6.136;2023-03-13T06:28:18;4.47;;;0.65;;
37201;SDS011;37799;52.390;6.136;2023-03-13T06:30:43;4.20;;;0.82;;
37201;SDS011;37799;52.390;6.136;2023-03-13T06:33:08;4.38;;;0.80;;
37201;SDS011;37799;52.390;6.136;2023-03-13T06:35:34;2.97;;;0.80;;
37201;SDS011;37799;52.390;6.136;2023-03-13T06:37:59;2.95;;;0.65;;
37201;SDS011;37799;52.390;6.136;2023-03-13T06:40:24;9.40;;;0.73;;
37201;SDS011;37799;52.390;6.136;2023-03-13T06:42:50;3.67;;;0.90;;
37201;SDS011;37799;52.390;6.136;2023-03-13T06:45:15;5.80;;;1.05;;
37201;SDS011;37799;52.390;6.136;2023-03-13T06:47:40;3.92;;;0.70;;
37201;SDS011;37799;52.390;6.136;2023-03-13T06:50:06;5.35;;;0.77;;
37201;SDS011;37799;52.390;6.136;2023-03-13T06:52:31;7.13;;;0.88;;
37201;SDS011;37799;52.390;6.136;2023-03-13T06:54:57;4.75;;;0.90;;
37201;SDS011;37799;52.390;6.136;2023-03-13T06:57:22;3.55;;;0.80;;
37201;SDS011;37799;52.390;6.136;2023-03-13T06:59:47;3.47;;;0.60;;
37201;SDS011;37799;52.390;6.136;2023-03-13T07:02:12;3.03;;;0.80;;
37201;SDS011;37799;52.390;6.136;2023-03-13T07:04:40;4.95;;;0.63;;
37201;SDS011;37799;52.390;6.136;2023-03-13T07:07:05;1.67;;;0.40;;
37201;SDS011;37799;52.390;6.136;2023-03-13T07:09:31;2.78;;;0.77;;
37201;SDS011;37799;52.390;6.136;2023-03-13T07:11:56;2.40;;;0.60;;
37201;SDS011;37799;52.390;6.136;2023-03-13T07:14:22;2.55;;;0.60;;
37201;SDS011;37799;52.390;6.136;2023-03-13T07:16:48;4.80;;;0.82;;
37201;SDS011;37799;52.390;6.136;2023-03-13T07:19:13;5.78;;;0.85;;
37201;SDS011;37799;52.390;6.136;2023-03-13T07:21:40;4.57;;;0.90;;
37201;SDS011;37799;52.390;6.136;2023-03-13T07:24:05;4.40;;;0.50;;
37201;SDS011;37799;52.390;6.136;2023-03-13T07:26:31;4.40;;;0.65;;
37201;SDS011;37799;52.390;6.136;2023-03-13T07:28:56;2.88;;;0.60;;
37201;SDS011;37799;52.390;6.136;2023-03-13T07:31:21;2.35;;;0.50;;
37201;SDS011;37799;52.390;6.136;2023-03-13T07:33:48;2.03;;;0.32;;
37201;SDS011;37799;52.390;6.136;2023-03-13T07:36:16;4.07;;;0.57;;
37201;SDS011;37799;52.390;6.136;2023-03-13T07:38:42;1.77;;;0.50;;
37201;SDS011;37799;52.390;6.136;2023-03-13T07:41:09;4.93;;;0.90;;
37201;SDS011;37799;52.390;6.136;2023-03-13T07:43:35;2.40;;;0.60;;
37201;SDS011;37799;52.390;6.136;2023-03-13T07:46:02;3.78;;;0.60;;
37201;SDS011;37799;52.390;6.136;2023-03-13T07:48:35;8.05;;;0.98;;
37201;SDS011;37799;52.390;6.136;2023-03-13T07:51:03;1.67;;;0.38;;
37201;SDS011;37799;52.390;6.136;2023-03-13T07:53:29;2.05;;;0.57;;
37201;SDS011;37799;52.390;6.136;2023-03-13T07:56:05;2.05;;;0.50;;
37201;SDS011;37799;52.390;6.136;2023-03-13T07:58:34;3.85;;;0.57;;
37201;SDS011;37799;52.390;6.136;2023-03-13T08:01:07;2.55;;;0.57;;
37201;SDS011;37799;52.390;6.136;2023-03-13T08:03:33;3.38;;;0.32;;
37201;SDS011;37799;52.390;6.136;2023-03-13T08:05:59;3.22;;;0.65;;
37201;SDS011;37799;52.390;6.136;2023-03-13T08:08:26;4.63;;;0.65;;
37201;SDS011;37799;52.390;6.136;2023-03-13T08:10:52;2.28;;;0.30;;
37201;SDS011;37799;52.390;6.136;2023-03-13T08:13:17;2.03;;;0.38;;
37201;SDS011;37799;52.390;6.136;2023-03-13T08:15:43;2.03;;;0.57;;
37201;SDS011;37799;52.390;6.136;2023-03-13T08:18:08;4.13;;;0.40;;
37201;SDS011;37799;52.390;6.136;2023-03-13T08:20:33;4.70;;;0.57;;
37201;SDS011;37799;52.390;6.136;2023-03-13T08:22:58;1.67;;;0.40;;
37201;SDS011;37799;52.390;6.136;2023-03-13T08:25:24;2.20;;;0.60;;
37201;SDS011;37799;52.390;6.136;2023-03-13T08:27:49;2.38;;;0.43;;
37201;SDS011;37799;52.390;6.136;2023-03-13T08:30:14;3.20;;;0.30;;
37201;SDS011;37799;52.390;6.136;2023-03-13T08:32:40;1.50;;;0.32;;
37201;SDS011;37799;52.390;6.136;2023-03-13T08:35:05;2.22;;;0.40;;
37201;SDS011;37799;52.390;6.136;2023-03-13T08:37:31;3.40;;;0.55;;
37201;SDS011;37799;52.390;6.136;2023-03-13T08:39:56;2.53;;;0.20;;
37201;SDS011;37799;52.390;6.136;2023-03-13T08:42:22;1.58;;;0.55;;
37201;SDS011;37799;52.390;6.136;2023-03-13T08:44:48;2.67;;;0.47;;
37201;SDS011;37799;52.390;6.136;2023-03-13T08:47:13;4.38;;;0.60;;
37201;SDS011;37799;52.390;6.136;2023-03-13T08:49:38;2.05;;;0.45;;
37201;SDS011;37799;52.390;6.136;2023-03-13T08:52:04;3.40;;;0.32;;
37201;SDS011;37799;52.390;6.136;2023-03-13T08:54:30;1.58;;;0.38;;
37201;SDS011;37799;52.390;6.136;2023-03-13T08:56:56;1.52;;;0.28;;
37201;SDS011;37799;52.390;6.136;2023-03-13T08:59:21;3.13;;;0.50;;
37201;SDS011;37799;52.390;6.136;2023-03-13T09:01:46;3.33;;;0.47;;
37201;SDS011;37799;52.390;6.136;2023-03-13T09:04:12;1.35;;;0.30;;
37201;SDS011;37799;52.390;6.136;2023-03-13T09:06:37;1.45;;;0.40;;
37201;SDS011;37799;52.390;6.136;2023-03-13T09:09:03;1.50;;;0.20;;
37201;SDS011;37799;52.390;6.136;2023-03-13T09:11:30;1.85;;;0.40;;
37201;SDS011;37799;52.390;6.136;2023-03-13T09:13:56;2.40;;;0.30;;
37201;SDS011;37799;52.390;6.136;2023-03-13T09:16:24;2.67;;;0.20;;
37201;SDS011;37799;52.390;6.136;2023-03-13T09:18:51;2.95;;;0.70;;
37201;SDS011;37799;52.390;6.136;2023-03-13T09:21:20;1.60;;;0.57;;
37201;SDS011;37799;52.390;6.136;2023-03-13T09:23:51;1.90;;;0.50;;
37201;SDS011;37799;52.390;6.136;2023-03-13T09:26:17;3.67;;;0.50;;
37201;SDS011;37799;52.390;6.136;2023-03-13T09:28:43;0.95;;;0.17;;
37201;SDS011;37799;52.390;6.136;2023-03-13T09:31:13;3.33;;;0.32;;
37201;SDS011;37799;52.390;6.136;2023-03-13T09:33:40;2.70;;;0.30;;
37201;SDS011;37799;52.390;6.136;2023-03-13T09:36:06;2.05;;;0.60;;
37201;SDS011;37799;52.390;6.136;2023-03-13T09:38:32;1.75;;;0.32;;
37201;SDS011;37799;52.390;6.136;2023-03-13T09:41:33;1.55;;;0.40;;
37201;SDS011;37799;52.390;6.136;2023-03-13T09:44:16;6.65;;;0.57;;
37201;SDS011;37799;52.390;6.136;2023-03-13T09:47:00;1.75;;;0.52;;
37201;SDS011;37799;52.390;6.136;2023-03-13T09:49:36;3.60;;;0.40;;
37201;SDS011;37799;52.390;6.136;2023-03-13T09:52:06;1.13;;;0.30;;
37201;SDS011;37799;52.390;6.136;2023-03-13T09:54:38;1.67;;;0.22;;
37201;SDS011;37799;52.390;6.136;2023-03-13T09:58:09;0.70;;;0.17;;
37201;SDS011;37799;52.390;6.136;2023-03-13T10:00:37;0.75;;;0.10;;
37201;SDS011;37799;52.390;6.136;2023-03-13T10:05:37;1.17;;;0.30;;
37201;SDS011;37799;52.390;6.136;2023-03-13T10:08:10;2.05;;;0.30;;
37201;SDS011;37799;52.390;6.136;2023-03-13T10:13:41;2.15;;;0.17;;
37201;SDS011;37799;52.390;6.136;2023-03-13T10:16:12;0.73;;;0.38;;
37201;SDS011;37799;52.390;6.136;2023-03-13T10:18:46;0.80;;;0.10;;
37201;SDS011;37799;52.390;6.136;2023-03-13T10:21:18;1.98;;;0.57;;
37201;SDS011;37799;52.390;6.136;2023-03-13T10:23:56;0.52;;;0.10;;
37201;SDS011;37799;52.390;6.136;2023-03-13T10:26:28;1.23;;;0.45;;
37201;SDS011;37799;52.390;6.136;2023-03-13T10:31:56;3.63;;;0.20;;
37201;SDS011;37799;52.390;6.136;2023-03-13T10:34:24;2.28;;;0.20;;
37201;SDS011;37799;52.390;6.136;2023-03-13T10:36:56;4.63;;;0.50;;
37201;SDS011;37799;52.390;6.136;2023-03-13T10:39:24;0.98;;;0.10;;
37201;SDS011;37799;52.390;6.136;2023-03-13T10:41:55;1.45;;;0.10;;
37201;SDS011;37799;52.390;6.136;2023-03-13T10:44:28;0.90;;;0.30;;
37201;SDS011;37799;52.390;6.136;2023-03-13T10:46:57;0.20;;;0.00;;
37201;SDS011;37799;52.390;6.136;2023-03-13T10:49:25;1.42;;;1.00;;
37201;SDS011;37799;52.390;6.136;2023-03-13T10:51:55;6.30;;;0.20;;
37201;SDS011;37799;52.390;6.136;2023-03-13T10:54:25;3.13;;;0.20;;
37201;SDS011;37799;52.390;6.136;2023-03-13T10:57:06;0.63;;;0.10;;
37201;SDS011;37799;52.390;6.136;2023-03-13T10:59:38;0.70;;;0.20;;
37201;SDS011;37799;52.390;6.136;2023-03-13T11:02:17;0.13;;;0.00;;
37201;SDS011;37799;52.390;6.136;2023-03-13T11:04:44;0.60;;;0.10;;
37201;SDS011;37799;52.390;6.136;2023-03-13T11:07:14;5.80;;;0.40;;
37201;SDS011;37799;52.390;6.136;2023-03-13T11:09:51;0.40;;;0.10;;
37201;SDS011;37799;52.390;6.136;2023-03-13T11:12:22;2.30;;;0.30;;
37201;SDS011;37799;52.390;6.136;2023-03-13T11:14:47;2.92;;;0.15;;
37201;SDS011;37799;52.390;6.136;2023-03-13T11:17:23;1.27;;;0.15;;
37201;SDS011;37799;52.390;6.136;2023-03-13T11:25:20;0.47;;;0.10;;
37201;SDS011;37799;52.390;6.136;2023-03-13T11:28:06;1.75;;;0.20;;
37201;SDS011;37799;52.390;6.136;2023-03-13T11:30:43;0.73;;;0.10;;
37201;SDS011;37799;52.390;6.136;2023-03-13T11:38:41;1.10;;;0.10;;
37201;SDS011;37799;52.390;6.136;2023-03-13T11:41:21;0.50;;;0.10;;
37201;SDS011;37799;52.390;6.136;2023-03-13T11:49:12;0.52;;;0.00;;
37201;SDS011;37799;52.390;6.136;2023-03-13T11:54:43;0.80;;;0.17;;
37201;SDS011;37799;52.390;6.136;2023-03-13T11:59:50;2.35;;;0.10;;
37201;SDS011;37799;52.390;6.136;2023-03-13T12:02:45;2.13;;;0.20;;
37201;SDS011;37799;52.390;6.136;2023-03-13T12:05:14;1.02;;;0.10;;
37201;SDS011;37799;52.390;6.136;2023-03-13T12:07:56;0.28;;;0.00;;
37201;SDS011;37799;52.390;6.136;2023-03-13T12:10:29;0.55;;;0.10;;
37201;SDS011;37799;52.390;6.136;2023-03-13T12:13:04;0.40;;;0.10;;
37201;SDS011;37799;52.390;6.136;2023-03-13T12:15:46;0.85;;;0.10;;
37201;SDS011;37799;52.390;6.136;2023-03-13T12:18:23;3.88;;;0.45;;
37201;SDS011;37799;52.390;6.136;2023-03-13T12:21:04;0.85;;;0.25;;
37201;SDS011;37799;52.390;6.136;2023-03-13T12:26:05;2.10;;;0.50;;
37201;SDS011;37799;52.390;6.136;2023-03-13T12:31:28;2.35;;;0.20;;
37201;SDS011;37799;52.390;6.136;2023-03-13T12:36:47;1.30;;;0.50;;
37201;SDS011;37799;52.390;6.136;2023-03-13T12:44:38;0.70;;;0.10;;
37201;SDS011;37799;52.390;6.136;2023-03-13T12:47:08;0.50;;;0.10;;
37201;SDS011;37799;52.390;6.136;2023-03-13T12:52:36;1.33;;;0.20;;
37201;SDS011;37799;52.390;6.136;2023-03-13T12:55:39;0.57;;;0.10;;
37201;SDS011;37799;52.390;6.136;2023-03-13T12:58:22;0.68;;;0.20;;
37201;SDS011;37799;52.390;6.136;2023-03-13T13:00:49;0.63;;;0.15;;
37201;SDS011;37799;52.390;6.136;2023-03-13T13:06:02;0.85;;;0.28;;
37201;SDS011;37799;52.390;6.136;2023-03-13T13:08:50;0.93;;;0.10;;
37201;SDS011;37799;52.390;6.136;2023-03-13T13:16:35;2.70;;;0.75;;
37201;SDS011;37799;52.390;6.136;2023-03-13T13:24:51;0.40;;;0.00;;
37201;SDS011;37799;52.390;6.136;2023-03-13T13:29:58;1.25;;;0.20;;
37201;SDS011;37799;52.390;6.136;2023-03-13T13:32:35;1.75;;;0.30;;
37201;SDS011;37799;52.390;6.136;2023-03-13T13:37:38;1.55;;;0.43;;
37201;SDS011;37799;52.390;6.136;2023-03-13T13:40:17;3.10;;;0.30;;
37201;SDS011;37799;52.390;6.136;2023-03-13T13:42:46;0.28;;;0.00;;
37201;SDS011;37799;52.390;6.136;2023-03-13T13:45:23;1.52;;;0.55;;
37201;SDS011;37799;52.390;6.136;2023-03-13T13:48:12;2.60;;;0.50;;
37201;SDS011;37799;52.390;6.136;2023-03-13T13:56:41;6.50;;;0.57;;
37201;SDS011;37799;52.390;6.136;2023-03-13T14:04:16;2.05;;;0.10;;
37201;SDS011;37799;52.390;6.136;2023-03-13T14:06:48;0.85;;;0.20;;
37201;SDS011;37799;52.390;6.136;2023-03-13T14:09:25;0.95;;;0.20;;
37201;SDS011;37799;52.390;6.136;2023-03-13T14:11:59;0.98;;;0.20;;
37201;SDS011;37799;52.390;6.136;2023-03-13T14:14:24;0.80;;;0.10;;
37201;SDS011;37799;52.390;6.136;2023-03-13T14:16:53;1.90;;;0.38;;
37201;SDS011;37799;52.390;6.136;2023-03-13T14:21:49;3.10;;;0.80;;
37201;SDS011;37799;52.390;6.136;2023-03-13T14:24:14;0.17;;;0.05;;
37201;SDS011;37799;52.390;6.136;2023-03-13T14:26:44;1.73;;;0.20;;
37201;SDS011;37799;52.390;6.136;2023-03-13T14:29:16;2.63;;;0.25;;
37201;SDS011;37799;52.390;6.136;2023-03-13T14:32:05;1.17;;;0.17;;
37201;SDS011;37799;52.390;6.136;2023-03-13T14:34:30;7.63;;;1.23;;
37201;SDS011;37799;52.390;6.136;2023-03-13T14:36:59;1.48;;;0.20;;
37201;SDS011;37799;52.390;6.136;2023-03-13T14:42:04;5.50;;;0.38;;
37201;SDS011;37799;52.390;6.136;2023-03-13T14:44:34;1.23;;;0.20;;
37201;SDS011;37799;52.390;6.136;2023-03-13T14:47:45;4.60;;;0.20;;
37201;SDS011;37799;52.390;6.136;2023-03-13T14:49:54;4.75;;;0.88;;
37201;SDS011;37799;52.390;6.136;2023-03-13T14:52:23;1.70;;;0.25;;
37201;SDS011;37799;52.390;6.136;2023-03-13T14:54:53;8.32;;;0.35;;
37201;SDS011;37799;52.390;6.136;2023-03-13T14:57:19;4.47;;;0.20;;
37201;SDS011;37799;52.390;6.136;2023-03-13T14:59:47;2.40;;;0.45;;
37201;SDS011;37799;52.390;6.136;2023-03-13T15:07:18;5.32;;;0.35;;
37201;SDS011;37799;52.390;6.136;2023-03-13T15:09:45;8.88;;;0.65;;
37201;SDS011;37799;52.390;6.136;2023-03-13T15:12:12;3.58;;;0.47;;
37201;SDS011;37799;52.390;6.136;2023-03-13T15:14:41;4.35;;;0.50;;
37201;SDS011;37799;52.390;6.136;2023-03-13T15:17:12;2.53;;;0.20;;
37201;SDS011;37799;52.390;6.136;2023-03-13T15:19:46;0.88;;;0.25;;
37201;SDS011;37799;52.390;6.136;2023-03-13T15:22:13;6.80;;;0.70;;
37201;SDS011;37799;52.390;6.136;2023-03-13T15:24:41;2.60;;;0.25;;
37201;SDS011;37799;52.390;6.136;2023-03-13T15:27:17;2.42;;;0.38;;
37201;SDS011;37799;52.390;6.136;2023-03-13T15:29:44;3.15;;;0.73;;
37201;SDS011;37799;52.390;6.136;2023-03-13T15:32:12;4.07;;;0.43;;
37201;SDS011;37799;52.390;6.136;2023-03-13T15:34:43;2.35;;;0.20;;
37201;SDS011;37799;52.390;6.136;2023-03-13T15:37:12;2.38;;;0.22;;
37201;SDS011;37799;52.390;6.136;2023-03-13T15:39:38;4.00;;;0.43;;
37201;SDS011;37799;52.390;6.136;2023-03-13T15:42:03;2.17;;;0.45;;
37201;SDS011;37799;52.390;6.136;2023-03-13T15:44:28;3.28;;;0.25;;
37201;SDS011;37799;52.390;6.136;2023-03-13T15:46:54;7.95;;;1.00;;
37201;SDS011;37799;52.390;6.136;2023-03-13T15:49:19;3.40;;;0.55;;
37201;SDS011;37799;52.390;6.136;2023-03-13T15:51:44;4.18;;;0.38;;
37201;SDS011;37799;52.390;6.136;2023-03-13T15:54:10;2.80;;;0.35;;
37201;SDS011;37799;52.390;6.136;2023-03-13T15:56:35;2.42;;;0.40;;
37201;SDS011;37799;52.390;6.136;2023-03-13T15:59:08;2.17;;;0.40;;
37201;SDS011;37799;52.390;6.136;2023-03-13T16:01:37;2.60;;;0.30;;
37201;SDS011;37799;52.390;6.136;2023-03-13T16:04:03;3.78;;;0.70;;
37201;SDS011;37799;52.390;6.136;2023-03-13T16:06:29;1.08;;;0.17;;
37201;SDS011;37799;52.390;6.136;2023-03-13T16:08:58;2.85;;;0.65;;
37201;SDS011;37799;52.390;6.136;2023-03-13T16:11:25;3.58;;;0.22;;
37201;SDS011;37799;52.390;6.136;2023-03-13T16:13:51;1.25;;;0.20;;
37201;SDS011;37799;52.390;6.136;2023-03-13T16:16:20;1.38;;;0.20;;
37201;SDS011;37799;52.390;6.136;2023-03-13T16:18:48;2.88;;;0.55;;
37201;SDS011;37799;52.390;6.136;2023-03-13T16:21:19;8.38;;;0.50;;
37201;SDS011;37799;52.390;6.136;2023-03-13T16:23:45;2.10;;;0.55;;
37201;SDS011;37799;52.390;6.136;2023-03-13T16:26:13;1.88;;;0.13;;